Dadville, New York
Current Conditions -  °F | °C
As of 2:58 AM on Sunday 26 Oct 2014 (Local Time) from KGTB Reporting Station
Overcast Overcast  
Wind Chill: 44°   Ceiling: 4100
Heat Index: 49°   Visibility: 10mi
Dew Point: 38°   Wind: 10mph
Humidity: 68%   Direction: 270°W
Pressure: 29.5"   Gusts: NA
Location:  43.7565°N, 75.5938°W
Report Text: KGTB 260658Z AUTO 27009KT 10SM OVC041 09/04 A2950 RMK AO2 SLP991 T00920035
Loading
Personal Weather Stations






























Interactive Weather Map
Tropical Storm Tracking
New forecast layout! Learn more

10-Day Weather Forecast

Advertisements
Track Severe Weather on mobile